Time;durP1;ratioP1;P1;durP2;ratioP2;P2;SDS_P1;SDS_P2;PMS_P1;PMS_P2;Temp;Humidity;BMP_temperature;BMP_pressure;BME280_temperature;BME280_humidity;BME280_pressure;Samples;Min_cycle;Max_cycle;Signal;HPM_P1;HPM_P2
2022/07/05 00:00:57;;;;;;;11.73;7.72;;;21.30;99.90;21.30;98647.00;;;;5094712;27;82448;-61
2022/07/05 00:03:23;;;;;;;11.73;7.47;;;21.20;99.90;21.20;98646.00;;;;5092541;27;82514;-61
2022/07/05 00:05:49;;;;;;;11.98;6.88;;;21.10;99.90;21.20;98655.00;;;;5097128;27;81745;-60
2022/07/05 00:08:16;;;;;;;9.38;7.13;;;21.10;99.90;21.10;98660.00;;;;5098456;27;81957;-60
2022/07/05 00:10:42;;;;;;;10.02;7.10;;;21.10;99.90;21.00;98653.00;;;;5076686;27;82281;-60
2022/07/05 00:13:09;;;;;;;9.95;7.22;;;21.00;99.90;21.00;98655.00;;;;5091172;27;83557;-60
2022/07/05 00:15:35;;;;;;;11.10;8.02;;;21.00;99.90;21.00;98656.00;;;;5094481;27;84416;-59
2022/07/05 00:18:02;;;;;;;10.45;7.53;;;21.00;99.90;21.00;98658.00;;;;5100014;27;82773;-60
2022/07/05 00:20:28;;;;;;;12.50;7.53;;;21.00;99.90;21.00;98655.00;;;;5091164;27;82194;-60
2022/07/05 00:22:54;;;;;;;10.93;7.18;;;21.00;99.90;20.90;98653.00;;;;5095131;27;82468;-60
2022/07/05 00:25:20;;;;;;;14.40;7.43;;;20.90;99.90;20.80;98655.00;;;;5097041;27;82551;-60
2022/07/05 00:27:46;;;;;;;8.05;6.75;;;20.80;99.90;20.70;98657.00;;;;5095111;27;82537;-60
2022/07/05 00:30:13;;;;;;;16.58;7.68;;;20.70;99.90;20.70;98654.00;;;;5090259;27;82353;-60
2022/07/05 00:32:40;;;;;;;9.13;7.18;;;20.80;99.90;20.80;98657.00;;;;5098320;27;82723;-60
2022/07/05 00:35:08;;;;;;;9.70;7.18;;;20.80;99.90;21.00;98656.00;;;;5086450;27;82070;-61
2022/07/05 00:37:34;;;;;;;10.05;7.32;;;20.90;99.90;21.00;98656.00;;;;5097416;27;82768;-61
2022/07/05 00:40:01;;;;;;;11.77;6.82;;;20.90;99.90;21.00;98664.00;;;;5075205;27;82363;-60
2022/07/05 00:42:29;;;;;;;9.30;7.22;;;20.90;99.90;21.00;98662.00;;;;5066564;27;82864;-60
2022/07/05 00:44:55;;;;;;;10.20;7.07;;;20.90;99.90;21.00;98656.00;;;;5087690;27;82341;-59
2022/07/05 00:47:22;;;;;;;13.10;7.60;;;20.90;99.90;21.00;98656.00;;;;5091018;27;81979;-59
2022/07/05 00:49:49;;;;;;;11.57;7.18;;;20.80;99.90;21.00;98656.00;;;;5085806;27;83463;-60
2022/07/05 00:52:15;;;;;;;13.80;6.93;;;20.90;99.90;21.00;98656.00;;;;5105935;27;82539;-61
2022/07/05 00:54:42;;;;;;;11.32;6.60;;;20.80;99.90;20.90;98648.00;;;;5087341;27;82030;-60
2022/07/05 00:57:08;;;;;;;11.13;6.72;;;20.80;99.90;20.80;98645.00;;;;5074752;27;82225;-61
2022/07/05 00:59:35;;;;;;;11.85;7.60;;;20.70;99.90;20.80;98650.00;;;;5073537;27;82237;-60
2022/07/05 01:02:01;;;;;;;12.13;7.60;;;20.70;99.90;20.70;98656.00;;;;5093600;27;84529;-60
2022/07/05 01:04:27;;;;;;;9.98;7.13;;;20.70;99.90;20.70;98653.00;;;;5074296;27;83813;-60
2022/07/05 01:06:55;;;;;;;11.25;6.97;;;20.60;99.90;20.70;98659.00;;;;5076757;27;82642;-59
2022/07/05 01:09:23;;;;;;;12.23;7.18;;;20.60;99.90;20.60;98656.00;;;;5075336;27;82228;-59
2022/07/05 01:11:51;;;;;;;9.52;7.22;;;20.50;99.90;20.60;98652.00;;;;5077307;27;82412;-60
2022/07/05 01:14:20;;;;;;;10.68;7.38;;;20.50;99.90;20.60;98659.00;;;;5068058;27;84883;-60
2022/07/05 01:16:47;;;;;;;8.68;7.03;;;20.50;99.90;20.70;98656.00;;;;5076289;27;83255;-60
2022/07/05 01:19:13;;;;;;;10.98;7.35;;;20.60;99.90;20.70;98660.00;;;;5059626;27;84594;-60
2022/07/05 01:21:43;;;;;;;11.35;7.65;;;20.60;99.90;20.80;98652.00;;;;5093793;27;83588;-60
2022/07/05 01:24:11;;;;;;;12.00;7.82;;;20.70;99.90;20.90;98668.00;;;;5071269;27;82276;-60
2022/07/05 01:26:39;;;;;;;10.80;7.03;;;20.80;99.90;21.00;98661.00;;;;5075900;27;83077;-60
2022/07/05 01:29:07;;;;;;;9.65;6.93;;;20.80;99.90;21.10;98658.00;;;;5073417;27;83527;-60
2022/07/05 01:31:36;;;;;;;9.18;6.80;;;20.90;99.90;21.10;98653.00;;;;5093051;27;81934;-60
2022/07/05 01:34:03;;;;;;;10.93;7.22;;;20.90;99.90;21.10;98654.00;;;;5058048;27;83492;-60
2022/07/05 01:36:30;;;;;;;9.68;7.05;;;20.90;99.90;21.20;98656.00;;;;5095300;27;82325;-60
2022/07/05 01:38:56;;;;;;;9.20;6.68;;;21.00;99.90;21.20;98655.00;;;;5092240;27;82252;-60
2022/07/05 01:41:22;;;;;;;12.57;7.78;;;21.00;99.90;21.20;98650.00;;;;5087660;27;82760;-60
2022/07/05 01:43:48;;;;;;;10.63;6.95;;;21.00;99.90;21.20;98651.00;;;;5075976;27;83201;-60
2022/07/05 01:46:18;;;;;;;9.48;7.35;;;21.00;99.90;21.20;98651.00;;;;5091882;27;81936;-60
2022/07/05 01:48:45;;;;;;;12.55;7.00;;;21.00;99.90;21.20;98651.00;;;;5073256;27;82441;-60
2022/07/05 01:51:28;;;;;;;9.68;6.97;;;21.00;99.90;21.20;98645.00;;;;5074571;27;83838;-60
2022/07/05 01:53:55;;;;;;;9.50;7.32;;;21.10;99.90;21.30;98658.00;;;;5054047;27;82308;-60
2022/07/05 01:56:21;;;;;;;8.93;7.25;;;21.10;99.90;21.30;98650.00;;;;5078284;27;82161;-60
2022/07/05 01:58:48;;;;;;;11.60;7.10;;;21.10;99.90;21.40;98641.00;;;;5077569;27;82720;-60
2022/07/05 02:01:14;;;;;;;16.13;8.20;;;21.20;99.90;21.70;98645.00;;;;5055332;27;83610;-60
2022/07/05 02:03:40;;;;;;;12.32;7.32;;;21.50;99.90;22.30;98640.00;;;;5093045;27;82409;-60
2022/07/05 02:06:10;;;;;;;11.40;6.50;;;22.00;99.90;23.00;98635.00;;;;5077737;27;81999;-61
2022/07/05 02:08:36;;;;;;;10.60;7.88;;;22.50;99.90;23.50;98643.00;;;;5078389;27;82243;-61
2022/07/05 02:11:04;;;;;;;14.30;8.00;;;23.10;99.90;24.00;98633.00;;;;5098685;27;83552;-61
2022/07/05 02:13:30;;;;;;;12.48;7.43;;;23.60;99.90;24.50;98642.00;;;;5065314;27;82445;-61
2022/07/05 02:15:57;;;;;;;13.75;7.75;;;24.00;99.90;24.90;98648.00;;;;5073961;27;82865;-61
2022/07/05 02:18:24;;;;;;;13.85;7.85;;;24.40;99.90;25.10;98649.00;;;;5079191;27;82468;-60
2022/07/05 02:20:53;;;;;;;10.73;6.82;;;24.60;99.90;25.40;98634.00;;;;5072702;27;83894;-61
2022/07/05 02:23:19;;;;;;;9.48;6.50;;;24.90;99.90;25.70;98643.00;;;;5070689;27;82389;-60
2022/07/05 02:25:46;;;;;;;14.73;7.35;;;25.20;99.90;26.10;98649.00;;;;5078293;27;82515;-61
2022/07/05 02:28:15;;;;;;;10.13;6.95;;;25.60;99.90;26.70;98653.00;;;;5076415;27;82029;-61
2022/07/05 02:30:44;;;;;;;9.75;6.68;;;26.10;99.90;27.30;98653.00;;;;5097300;27;82505;-61
2022/07/05 02:33:10;;;;;;;12.15;6.53;;;26.60;99.90;27.70;98646.00;;;;5076686;27;82830;-61
2022/07/05 02:35:37;;;;;;;12.27;7.20;;;27.00;99.80;27.80;98659.00;;;;5079590;27;82449;-61
2022/07/05 02:38:03;;;;;;;9.68;6.63;;;27.10;98.80;27.90;98647.00;;;;5074332;27;83022;-60
2022/07/05 02:40:30;;;;;;;10.27;6.63;;;27.40;98.80;28.00;98657.00;;;;5094782;27;83571;-60
2022/07/05 02:42:57;;;;;;;9.20;6.45;;;27.40;98.00;28.20;98662.00;;;;5076612;27;83558;-61
2022/07/05 02:45:24;;;;;;;12.75;6.55;;;27.50;97.20;28.40;98659.00;;;;5079596;27;82459;-60
2022/07/05 02:47:57;;;;;;;11.27;6.85;;;27.80;96.90;28.50;98660.00;;;;5077738;27;84565;-60
2022/07/05 02:50:25;;;;;;;9.10;6.63;;;27.90;96.30;28.80;98656.00;;;;5075629;27;82498;-60
2022/07/05 02:52:52;;;;;;;12.48;6.60;;;28.10;95.80;29.20;98666.00;;;;5072324;27;82319;-60
2022/07/05 02:55:19;;;;;;;11.25;6.75;;;28.50;95.80;29.50;98662.00;;;;5071135;27;82006;-61
2022/07/05 02:57:46;;;;;;;13.23;6.50;;;28.90;94.30;29.50;98661.00;;;;5071577;27;82213;-61
2022/07/05 03:00:14;;;;;;;10.50;6.82;;;28.70;94.60;29.60;98671.00;;;;5074164;27;83672;-61
2022/07/05 03:02:45;;;;;;;13.15;6.95;;;28.90;95.00;29.80;98669.00;;;;5061552;27;82732;-60
2022/07/05 03:05:11;;;;;;;14.77;7.70;;;29.00;95.00;30.10;98673.00;;;;5075513;27;82750;-61
2022/07/05 03:07:41;;;;;;;12.90;7.30;;;29.30;94.90;30.30;98677.00;;;;5079616;27;83613;-60
2022/07/05 03:10:08;;;;;;;16.40;7.60;;;29.40;94.80;30.20;98674.00;;;;5075011;27;82600;-60
2022/07/05 03:12:35;;;;;;;14.90;7.78;;;29.40;94.50;30.40;98676.00;;;;5065394;27;82281;-61
2022/07/05 03:15:02;;;;;;;18.95;9.05;;;29.50;94.30;30.50;98674.00;;;;5072714;27;82328;-61
2022/07/05 03:17:29;;;;;;;15.60;7.80;;;29.60;94.10;30.90;98670.00;;;;5078526;27;82217;-60
2022/07/05 03:19:55;;;;;;;19.77;8.15;;;30.00;93.30;31.00;98665.00;;;;5071598;27;90630;-60
2022/07/05 03:22:23;;;;;;;10.20;7.05;;;30.10;93.10;31.20;98669.00;;;;5076171;27;88802;-61
2022/07/05 03:24:49;;;;;;;13.05;7.75;;;30.20;92.70;31.20;98677.00;;;;5074546;27;87048;-60
2022/07/05 03:27:17;;;;;;;16.42;7.47;;;30.30;92.10;30.90;98673.00;;;;5071791;27;87673;-61
2022/07/05 03:29:45;;;;;;;15.15;7.45;;;29.90;91.80;30.90;98684.00;;;;5073762;27;91315;-60
2022/07/05 03:32:12;;;;;;;14.55;7.95;;;29.90;92.10;30.80;98683.00;;;;5054316;27;88292;-60
2022/07/05 03:34:39;;;;;;;15.60;7.40;;;29.70;92.10;30.90;98692.00;;;;5077089;27;87308;-61
2022/07/05 03:37:08;;;;;;;16.48;7.50;;;29.90;92.00;30.90;98690.00;;;;5070613;27;86990;-60
2022/07/05 03:39:34;;;;;;;12.55;7.70;;;30.00;91.50;30.90;98687.00;;;;5086968;27;88800;-60
2022/07/05 03:42:00;;;;;;;17.83;7.90;;;30.00;91.00;30.90;98693.00;;;;5067998;27;87469;-60
2022/07/05 03:44:31;;;;;;;12.10;7.07;;;29.90;91.20;30.70;98696.00;;;;5068414;27;87246;-61
2022/07/05 03:46:59;;;;;;;13.98;7.25;;;29.70;91.30;30.50;98696.00;;;;5081287;27;86278;-60
2022/07/05 03:49:27;;;;;;;9.30;6.85;;;29.50;91.30;30.40;98700.00;;;;5061088;27;87659;-60
2022/07/05 03:51:54;;;;;;;11.75;7.13;;;29.40;91.40;30.40;98699.00;;;;5077987;27;87417;-61
2022/07/05 03:54:20;;;;;;;9.88;6.65;;;29.50;91.60;30.20;98702.00;;;;5091944;27;87939;-60
2022/07/05 03:56:46;;;;;;;10.80;6.80;;;29.30;91.20;30.50;98700.00;;;;5077037;27;87164;-60
2022/07/05 03:59:16;;;;;;;11.90;6.20;;;29.60;90.70;30.50;98703.00;;;;5065390;27;88809;-60
2022/07/05 04:01:43;;;;;;;11.25;6.60;;;29.70;90.60;30.70;98703.00;;;;5070238;27;87272;-60
2022/07/05 04:04:11;;;;;;;11.70;6.32;;;29.80;89.80;30.80;98709.00;;;;5073034;27;87712;-60
2022/07/05 04:06:37;;;;;;;11.40;7.05;;;29.90;88.50;30.60;98701.00;;;;5091864;27;86974;-60
2022/07/05 04:09:04;;;;;;;13.00;6.28;;;29.70;88.80;30.70;98707.00;;;;5073378;27;87881;-61
2022/07/05 04:11:30;;;;;;;9.38;6.28;;;29.90;88.20;31.00;98713.00;;;;5072950;27;87279;-60
2022/07/05 04:13:57;;;;;;;10.77;6.35;;;30.10;87.70;31.10;98705.00;;;;5076596;27;87400;-60
2022/07/05 04:16:23;;;;;;;10.85;6.63;;;30.10;87.50;31.00;98711.00;;;;5078581;27;87339;-60
2022/07/05 04:18:50;;;;;;;12.75;6.43;;;30.10;87.50;31.00;98709.00;;;;5072376;27;88895;-60
2022/07/05 04:21:16;;;;;;;13.35;6.57;;;30.10;86.90;30.90;98709.00;;;;5076793;27;87273;-60
2022/07/05 04:23:42;;;;;;;7.22;5.93;;;30.00;86.80;31.00;98711.00;;;;5073102;27;86900;-60
2022/07/05 04:26:10;;;;;;;9.20;6.10;;;30.10;87.40;31.10;98718.00;;;;5073992;27;87095;-60
2022/07/05 04:28:42;;;;;;;9.40;6.20;;;30.20;86.80;30.90;98708.00;;;;5072361;27;87061;-61
2022/07/05 04:31:11;;;;;;;12.70;6.88;;;30.00;86.80;30.60;98724.00;;;;5076129;27;87057;-61
2022/07/05 04:33:41;;;;;;;10.50;6.85;;;29.70;88.00;30.20;98721.00;;;;5079225;27;87131;-60
2022/07/05 04:36:09;;;;;;;11.48;6.75;;;29.30;89.50;29.40;98725.00;;;;5060976;27;86569;-61
2022/07/05 04:38:36;;;;;;;11.30;6.93;;;28.60;90.80;28.50;98708.00;;;;5077143;27;87613;-61
2022/07/05 04:41:03;;;;;;;13.48;6.70;;;27.90;91.90;27.80;98716.00;;;;5069075;27;87201;-60
2022/07/05 04:43:33;;;;;;;11.85;6.65;;;27.20;93.90;27.80;98721.00;;;;5073608;27;87923;-61
2022/07/05 04:46:00;;;;;;;10.23;6.45;;;27.30;95.10;28.40;98703.00;;;;5073292;27;87062;-60
2022/07/05 04:48:27;;;;;;;12.90;7.00;;;27.70;94.80;28.90;98716.00;;;;5073309;27;87640;-60
2022/07/05 04:50:54;;;;;;;12.43;7.10;;;28.10;94.30;29.50;98711.00;;;;5070341;27;88427;-61
2022/07/05 04:53:21;;;;;;;16.45;6.75;;;28.60;93.10;29.90;98712.00;;;;5058683;27;87384;-60
2022/07/05 04:55:47;;;;;;;10.05;6.13;;;29.00;92.30;30.00;98710.00;;;;5070322;27;87018;-61
2022/07/05 04:58:13;;;;;;;11.57;6.30;;;29.00;91.80;29.70;98710.00;;;;5093072;27;87633;-60
2022/07/05 05:00:39;;;;;;;15.73;6.32;;;28.90;91.50;29.90;98708.00;;;;5070625;27;87381;-60
2022/07/05 05:03:05;;;;;;;13.75;7.13;;;29.20;91.70;30.30;98711.00;;;;5090678;27;87041;-61
2022/07/05 05:05:32;;;;;;;21.23;6.68;;;29.40;91.30;30.50;98710.00;;;;5086076;27;86984;-60
2022/07/05 05:07:58;;;;;;;18.08;7.72;;;29.60;90.70;30.80;98710.00;;;;5070571;27;88919;-60
2022/07/05 05:10:24;;;;;;;18.42;8.10;;;29.80;90.30;31.20;98712.00;;;;5095820;27;88461;-60
2022/07/05 05:12:50;;;;;;;15.00;6.53;;;30.20;90.30;31.60;98708.00;;;;5085287;27;87435;-60
2022/07/05 05:15:16;;;;;;;11.52;6.80;;;30.50;89.80;31.90;98710.00;;;;5089877;27;88185;-60
2022/07/05 05:17:43;;;;;;;15.52;6.63;;;30.80;88.80;31.90;98707.00;;;;5090866;27;87700;-60
2022/07/05 05:20:17;;;;;;;10.07;6.40;;;30.70;87.80;31.90;98714.00;;;;5094938;27;87661;-60
2022/07/05 05:22:44;;;;;;;19.30;6.82;;;30.80;86.40;32.10;98707.00;;;;5097351;27;87060;-60
2022/07/05 05:25:11;;;;;;;14.32;6.60;;;31.00;86.50;32.40;98714.00;;;;5066215;27;86795;-60
2022/07/05 05:27:46;;;;;;;11.10;6.78;;;31.20;85.40;32.30;98709.00;;;;5085128;27;88260;-60
2022/07/05 05:30:14;;;;;;;15.85;6.88;;;31.10;85.30;32.40;98715.00;;;;5070958;27;87308;-60
2022/07/05 05:32:40;;;;;;;13.38;7.13;;;31.30;85.20;32.30;98711.00;;;;5092386;27;88016;-60
2022/07/05 05:35:08;;;;;;;11.73;6.88;;;31.30;84.10;32.10;98719.00;;;;5089003;27;86935;-60
2022/07/05 05:37:57;;;;;;;12.45;6.75;;;31.10;84.00;31.90;98716.00;;;;5063698;27;87567;-60
2022/07/05 05:40:25;;;;;;;17.58;7.32;;;30.90;84.70;31.80;98716.00;;;;5077704;27;87410;-60
2022/07/05 05:42:53;;;;;;;15.43;6.78;;;30.70;84.50;31.70;98716.00;;;;5081905;27;86919;-60
2022/07/05 05:45:20;;;;;;;14.80;7.18;;;30.70;85.00;32.00;98717.00;;;;5100039;27;87339;-60
2022/07/05 05:47:57;;;;;;;15.93;7.47;;;30.90;85.70;32.40;98714.00;;;;5087308;27;87596;-60
2022/07/05 05:50:36;;;;;;;14.30;7.00;;;31.30;85.30;32.50;98701.00;;;;5061181;27;87422;-60
2022/07/05 05:53:03;;;;;;;8.95;6.45;;;31.40;84.10;32.50;98713.00;;;;5060672;27;86894;-61
2022/07/05 05:55:30;;;;;;;11.50;6.32;;;31.40;83.60;32.70;98703.00;;;;5063648;27;86850;-60
2022/07/05 05:57:57;;;;;;;14.93;6.68;;;31.60;83.80;33.00;98703.00;;;;5034396;27;88540;-60
2022/07/05 06:00:25;;;;;;;11.13;6.95;;;32.00;83.40;33.30;98698.00;;;;5049439;27;88223;-60
2022/07/05 06:02:52;;;;;;;12.93;7.50;;;32.10;82.60;33.30;98707.00;;;;5045397;27;87850;-60
2022/07/05 06:05:18;;;;;;;9.52;7.18;;;32.20;82.20;33.50;98705.00;;;;5054690;27;86997;-61
2022/07/05 06:07:51;;;;;;;14.95;7.45;;;32.50;81.70;33.70;98711.00;;;;5053223;27;87562;-60
2022/07/05 06:10:30;;;;;;;15.95;6.63;;;32.60;82.30;33.60;98708.00;;;;5047585;27;87638;-60
2022/07/05 06:12:58;;;;;;;12.43;7.05;;;32.50;81.00;33.50;98709.00;;;;5052110;27;87006;-60
2022/07/05 06:15:25;;;;;;;11.63;7.15;;;32.40;81.40;33.40;98703.00;;;;5052933;27;86287;-60
2022/07/05 06:17:51;;;;;;;17.77;7.38;;;32.30;82.00;33.20;98707.00;;;;5048889;27;87667;-61
2022/07/05 06:20:22;;;;;;;12.75;6.88;;;32.10;82.70;33.50;98705.00;;;;5053327;27;88497;-61
2022/07/05 06:22:49;;;;;;;14.27;7.15;;;32.40;83.10;33.40;98704.00;;;;5057469;27;88167;-60
2022/07/05 06:25:16;;;;;;;15.40;6.93;;;32.30;81.60;33.20;98698.00;;;;5060106;27;87238;-61
2022/07/05 06:27:54;;;;;;;10.90;7.00;;;32.10;80.70;32.50;98709.00;;;;5044416;27;88736;-60
2022/07/05 06:30:25;;;;;;;12.90;7.60;;;31.70;82.00;31.80;98703.00;;;;5054587;27;87417;-61
2022/07/05 06:32:52;;;;;;;;;;;31.00;84.60;31.40;98712.00;;;;5050865;27;87168;-60
2022/07/05 06:35:19;;;;;;;16.70;6.70;;;30.60;85.70;31.20;98710.00;;;;5040614;27;86990;-61
2022/07/05 06:37:46;;;;;;;15.57;8.05;;;30.40;86.40;30.90;98709.00;;;;5040543;27;87364;-60
2022/07/05 06:40:21;;;;;;;19.25;7.20;;;30.30;86.90;30.50;98698.00;;;;5049050;27;88269;-60
2022/07/05 06:42:48;;;;;;;11.77;6.78;;;30.10;86.40;30.10;98697.00;;;;5039508;27;87680;-60
2022/07/05 06:45:16;;;;;;;11.88;7.10;;;29.70;87.60;29.90;98698.00;;;;5040178;27;86894;-61
2022/07/05 06:47:42;;;;;;;13.07;6.78;;;29.50;86.70;29.80;98687.00;;;;5044108;27;87846;-61
2022/07/05 06:50:10;;;;;;;16.63;6.72;;;29.50;87.10;29.70;98694.00;;;;5058931;27;89374;-60
2022/07/05 06:52:37;;;;;;;12.73;6.90;;;29.40;87.80;29.80;98687.00;;;;5063067;27;86958;-61
2022/07/05 06:55:04;;;;;;;10.43;7.00;;;29.50;88.20;29.90;98697.00;;;;5063740;27;87311;-60
2022/07/05 06:57:30;;;;;;;12.32;7.10;;;29.60;88.40;30.10;98690.00;;;;5075768;27;87789;-60
2022/07/05 06:59:56;;;;;;;14.05;7.05;;;29.90;88.40;29.90;98699.00;;;;5091134;27;87455;-60
2022/07/05 07:02:23;;;;;;;12.25;7.03;;;29.60;87.30;29.80;98690.00;;;;5095400;27;87121;-60
2022/07/05 07:04:49;;;;;;;13.57;7.57;;;29.50;89.10;29.70;98685.00;;;;5092361;27;86728;-60
2022/07/05 07:10:03;;;;;;;10.52;7.05;;;29.40;90.10;29.70;98678.00;;;;5094268;27;88600;-60
2022/07/05 07:12:29;;;;;;;12.63;6.60;;;29.40;88.60;29.70;98682.00;;;;5077012;27;87830;-60
2022/07/05 07:14:57;;;;;;;10.70;7.50;;;29.30;88.40;29.70;98679.00;;;;5087307;27;86948;-60
2022/07/05 07:17:24;;;;;;;13.30;7.13;;;29.40;88.40;29.70;98676.00;;;;5093346;27;87738;-60
2022/07/05 07:19:51;;;;;;;14.30;7.47;;;29.40;89.80;29.80;98674.00;;;;5082957;27;87531;-60
2022/07/05 07:22:17;;;;;;;13.15;6.65;;;29.50;88.60;29.80;98682.00;;;;5085448;27;86946;-60
2022/07/05 07:24:43;;;;;;;12.32;7.55;;;29.40;87.80;29.80;98678.00;;;;5081580;27;87445;-60
2022/07/05 07:27:09;;;;;;;10.65;6.75;;;29.50;86.70;29.70;98674.00;;;;5083699;27;88031;-59
2022/07/05 07:29:37;;;;;;;15.38;7.63;;;29.50;83.50;29.70;98676.00;;;;5092771;27;87595;-60
2022/07/05 07:32:06;;;;;;;16.27;7.40;;;29.20;86.50;29.70;98674.00;;;;5084945;27;87507;-60
2022/07/05 07:34:33;;;;;;;15.40;6.93;;;29.40;86.20;30.00;98681.00;;;;5084821;27;87106;-60
2022/07/05 07:36:59;;;;;;;17.00;7.28;;;29.70;87.40;30.20;98674.00;;;;5102470;27;88520;-59
2022/07/05 07:39:26;;;;;;;10.52;7.28;;;29.80;85.70;30.00;98680.00;;;;5098979;27;88368;-60
2022/07/05 07:41:53;;;;;;;12.93;6.82;;;29.70;84.70;30.00;98676.00;;;;5050860;27;87046;-60
2022/07/05 07:44:20;;;;;;;7.90;6.28;;;29.60;84.00;30.00;98684.00;;;;5068585;27;87042;-60
2022/07/05 07:46:46;;;;;;;11.00;7.60;;;29.70;84.90;30.30;98681.00;;;;5096476;27;86993;-60
2022/07/05 07:49:13;;;;;;;9.15;6.78;;;29.90;84.90;30.30;98670.00;;;;5102582;27;88636;-60
2022/07/05 07:51:40;;;;;;;9.88;6.68;;;30.00;83.50;30.20;98681.00;;;;5103483;27;87006;-60
2022/07/05 07:54:06;;;;;;;12.57;7.00;;;29.80;84.20;30.10;98676.00;;;;5091048;27;86198;-60
2022/07/05 07:56:33;;;;;;;16.15;6.43;;;29.70;82.70;30.00;98683.00;;;;5086841;27;87718;-61
2022/07/05 07:58:59;;;;;;;15.23;6.90;;;29.60;83.00;30.10;98680.00;;;;5090477;27;87229;-60
2022/07/05 08:01:25;;;;;;;13.25;7.45;;;29.70;84.10;30.20;98687.00;;;;5095273;27;87988;-60
2022/07/05 08:03:52;;;;;;;9.07;7.28;;;29.70;83.80;29.90;98681.00;;;;5075432;27;87245;-60
2022/07/05 08:06:18;;;;;;;7.25;6.32;;;29.50;82.70;29.80;98680.00;;;;5077795;27;87079;-60
2022/07/05 08:08:45;;;;;;;8.27;7.10;;;29.50;82.30;30.00;98677.00;;;;5086566;27;87598;-61
2022/07/05 08:11:12;;;;;;;10.32;7.20;;;29.70;82.20;30.30;98678.00;;;;5101897;27;87267;-60
2022/07/05 08:13:40;;;;;;;15.95;7.30;;;29.90;84.00;30.50;98684.00;;;;5076835;27;86985;-61
2022/07/05 08:16:08;;;;;;;9.82;7.47;;;30.00;85.30;30.40;98677.00;;;;5093966;27;87788;-60
2022/07/05 08:21:31;;;;;;;11.65;7.15;;;30.10;84.50;30.50;98678.00;;;;5098008;27;87317;-61
2022/07/05 08:24:04;;;;;;;13.77;7.63;;;30.10;84.40;30.60;98673.00;;;;5060488;27;88370;-60
2022/07/05 08:26:31;;;;;;;14.65;7.60;;;30.20;86.10;30.70;98674.00;;;;5090615;27;89946;-60
2022/07/05 08:28:59;;;;;;;13.32;7.65;;;30.30;85.30;30.80;98678.00;;;;5089842;27;88370;-60
2022/07/05 08:31:28;;;;;;;10.75;7.13;;;30.40;84.70;31.00;98670.00;;;;5091656;27;86947;-60
2022/07/05 08:33:54;;;;;;;8.57;7.55;;;30.50;84.00;31.20;98670.00;;;;5064359;27;87052;-60
2022/07/05 08:36:21;;;;;;;14.30;8.02;;;30.80;82.70;31.20;98666.00;;;;5082630;27;87687;-61
2022/07/05 08:38:47;;;;;;;11.15;7.22;;;30.80;81.20;31.30;98665.00;;;;5085257;27;88434;-60
2022/07/05 08:41:18;;;;;;;9.73;7.75;;;30.80;80.30;31.30;98668.00;;;;5088312;27;86852;-61
2022/07/05 08:43:46;;;;;;;;;;;30.90;79.70;31.50;98669.00;;;;5081543;27;86415;-60
2022/07/05 08:46:14;;;;;;;15.38;7.93;;;31.00;79.20;31.70;98657.00;;;;5084874;27;87522;-60
2022/07/05 08:48:43;;;;;;;11.38;7.65;;;31.10;80.20;31.80;98664.00;;;;5083290;27;88319;-60
2022/07/05 08:51:14;;;;;;;11.77;7.72;;;31.30;80.10;31.80;98657.00;;;;5072053;27;88221;-60
2022/07/05 08:53:41;;;;;;;9.45;7.68;;;31.30;81.30;31.80;98659.00;;;;5038186;27;86991;-60
2022/07/05 08:56:09;;;;;;;14.95;7.65;;;31.20;81.40;31.80;98667.00;;;;5072309;27;88755;-60
2022/07/05 08:58:36;;;;;;;12.20;8.07;;;31.20;80.00;31.80;98657.00;;;;5090778;27;89604;-61
2022/07/05 09:01:04;;;;;;;10.95;7.28;;;31.30;79.90;31.70;98659.00;;;;5067656;27;87300;-60
2022/07/05 09:03:56;;;;;;;10.27;7.47;;;31.10;79.70;31.70;98654.00;;;;5078580;27;87451;-59
2022/07/05 09:10:51;;;;;;;10.90;7.78;;;31.20;80.50;31.60;98646.00;;;;5074308;27;87738;-59
2022/07/05 09:14:08;;;;;;;12.63;8.10;;;31.10;79.80;31.50;98651.00;;;;5071476;27;87027;-60
2022/07/05 09:16:48;;;;;;;;;;;31.00;79.90;31.70;98644.00;;;;5070202;27;87576;-60
2022/07/05 09:19:47;;;;;;;10.10;7.60;;;31.30;80.20;31.90;98653.00;;;;5078330;27;89055;-60
2022/07/05 09:22:43;;;;;;;10.82;8.98;;;31.40;79.20;32.00;98639.00;;;;5014721;28;88393;-60
2022/07/05 09:25:36;;;;;;;10.68;7.97;;;31.40;79.80;32.00;98637.00;;;;5069094;27;86956;-60
2022/07/05 09:28:21;;;;;;;8.88;7.25;;;31.40;79.80;31.80;98641.00;;;;5078549;27;87046;-59
2022/07/05 09:31:41;;;;;;;16.05;7.95;;;31.30;79.60;31.70;98637.00;;;;5074469;27;88905;-60
2022/07/05 09:34:27;;;;;;;10.40;7.60;;;31.20;78.80;31.70;98642.00;;;;5079816;27;88726;-59
2022/07/05 09:37:54;;;;;;;9.82;8.02;;;31.20;78.70;32.00;98639.00;;;;5057043;27;86884;-59
2022/07/05 09:44:24;;;;;;;12.80;8.32;;;31.30;80.60;31.70;98644.00;;;;5072233;27;87654;-60
2022/07/05 09:47:10;;;;;;;12.15;8.70;;;31.20;80.50;31.60;98631.00;;;;5075563;27;88308;-59
2022/07/05 09:50:13;;;;;;;12.95;8.13;;;31.10;79.90;31.80;98629.00;;;;5009534;27;88044;-59
2022/07/05 09:53:22;;;;;;;9.15;7.88;;;31.30;80.30;31.80;98628.00;;;;5068894;27;87716;-59
2022/07/05 09:56:08;;;;;;;11.25;7.82;;;31.20;78.80;31.90;98618.00;;;;5055404;27;89425;-59
2022/07/05 09:58:49;;;;;;;12.57;8.00;;;31.30;78.10;32.10;98617.00;;;;5077041;27;87336;-59
2022/07/05 10:01:44;;;;;;;11.45;8.05;;;31.60;79.10;32.20;98624.00;;;;5079992;27;87085;-60
2022/07/05 10:04:14;;;;;;;11.25;7.85;;;31.60;76.90;32.20;98630.00;;;;5061044;27;88452;-59
2022/07/05 10:06:47;;;;;;;13.73;8.27;;;31.60;78.10;32.20;98616.00;;;;5053592;27;87959;-60
2022/07/05 10:09:19;;;;;;;9.52;8.02;;;31.60;79.40;32.30;98617.00;;;;5075067;27;87874;-59
2022/07/05 10:12:01;;;;;;;11.20;7.95;;;31.70;77.50;32.20;98610.00;;;;5054568;27;87004;-60
2022/07/05 10:14:53;;;;;;;14.55;8.43;;;31.60;75.80;32.10;98611.00;;;;5059386;27;87858;-61
2022/07/05 10:17:46;;;;;;;11.85;7.80;;;31.50;76.30;32.10;98607.00;;;;5032300;27;89988;-60
2022/07/05 10:20:46;;;;;;;13.55;8.02;;;31.60;77.80;31.80;98599.00;;;;5062728;27;89079;-60
2022/07/05 10:23:19;;;;;;;10.55;7.50;;;31.30;75.60;32.00;98610.00;;;;5079945;27;87071;-60
2022/07/05 10:25:52;;;;;;;9.45;7.53;;;31.50;74.90;32.00;98605.00;;;;5055660;27;87180;-61
2022/07/05 10:28:30;;;;;;;8.05;7.07;;;31.40;74.60;32.30;98606.00;;;;5068591;27;88089;-59
2022/07/05 10:31:26;;;;;;;8.23;7.03;;;31.70;75.20;32.30;98604.00;;;;5044174;27;87301;-59
2022/07/05 10:34:29;;;;;;;8.60;7.25;;;31.80;73.50;32.30;98600.00;;;;5083636;27;87096;-60
2022/07/05 10:37:02;;;;;;;9.40;7.18;;;31.70;73.00;32.50;98598.00;;;;5064312;27;86762;-59
2022/07/05 10:39:45;;;;;;;9.50;6.72;;;32.00;72.80;32.60;98605.00;;;;5063741;27;87619;-61
2022/07/05 10:42:17;;;;;;;7.53;6.72;;;31.90;71.10;32.50;98586.00;;;;5045484;27;90400;-59
2022/07/05 10:44:52;;;;;;;8.85;7.40;;;31.80;70.60;32.20;98591.00;;;;5049753;27;88003;-59
2022/07/05 10:47:57;;;;;;;10.45;7.55;;;31.50;70.70;32.00;98588.00;;;;5057942;27;87303;-60
2022/07/05 10:51:16;;;;;;;10.65;7.05;;;31.30;70.60;32.40;98589.00;;;;5060669;27;87710;-59
2022/07/05 10:53:56;;;;;;;9.15;6.93;;;31.80;69.50;32.70;98578.00;;;;5055693;27;87513;-60
2022/07/05 10:56:33;;;;;;;10.52;7.95;;;32.10;70.60;32.50;98581.00;;;;5079576;27;87065;-59
2022/07/05 10:59:12;;;;;;;10.40;7.80;;;31.80;70.00;32.70;98577.00;;;;5083777;27;87697;-60
2022/07/05 11:01:49;;;;;;;9.30;6.93;;;32.10;68.90;33.00;98583.00;;;;5070944;27;87115;-62
2022/07/05 11:04:35;;;;;;;10.40;7.32;;;32.40;68.70;33.30;98581.00;;;;5085952;27;89251;-60
2022/07/05 11:07:14;;;;;;;9.57;7.20;;;32.60;68.40;33.00;98573.00;;;;5063266;27;87004;-61
2022/07/05 11:09:59;;;;;;;8.57;6.90;;;32.20;67.60;33.00;98583.00;;;;5079190;27;87063;-61
2022/07/05 11:12:39;;;;;;;9.10;7.28;;;32.40;68.20;32.80;98562.00;;;;5080651;27;89547;-60
2022/07/05 11:15:10;;;;;;;8.50;7.60;;;32.10;68.80;32.70;98572.00;;;;5066334;27;88285;-59
2022/07/05 11:17:38;;;;;;;12.35;8.02;;;32.10;70.10;32.60;98565.00;;;;5080799;27;87024;-60
2022/07/05 11:20:27;;;;;;;9.05;7.72;;;32.00;68.40;32.60;98569.00;;;;5088121;27;86962;-58